sensor_id;sensor_type;location;lat;lon;timestamp;P1;durP1;ratioP1;P2;durP2;ratioP2
63874;SDS011;51595;24.180;-110.296;2022-07-03T00:01:07;8.77;;;2.45;;
63874;SDS011;51595;24.180;-110.296;2022-07-03T00:03:34;10.38;;;2.47;;
63874;SDS011;51595;24.180;-110.296;2022-07-03T00:06:00;12.93;;;2.67;;
63874;SDS011;51595;24.180;-110.296;2022-07-03T00:08:27;9.32;;;2.08;;
63874;SDS011;51595;24.180;-110.296;2022-07-03T00:10:53;10.57;;;2.65;;
63874;SDS011;51595;24.180;-110.296;2022-07-03T00:13:20;6.65;;;1.92;;
63874;SDS011;51595;24.180;-110.296;2022-07-03T00:15:46;13.63;;;2.90;;
63874;SDS011;51595;24.180;-110.296;2022-07-03T00:18:13;10.10;;;2.30;;
63874;SDS011;51595;24.180;-110.296;2022-07-03T00:20:46;8.85;;;2.75;;
63874;SDS011;51595;24.180;-110.296;2022-07-03T00:23:18;11.63;;;2.60;;
63874;SDS011;51595;24.180;-110.296;2022-07-03T00:25:49;11.40;;;3.70;;
63874;SDS011;51595;24.180;-110.296;2022-07-03T00:28:16;13.82;;;3.28;;
63874;SDS011;51595;24.180;-110.296;2022-07-03T00:30:48;16.98;;;3.35;;
63874;SDS011;51595;24.180;-110.296;2022-07-03T00:33:15;12.05;;;3.63;;
63874;SDS011;51595;24.180;-110.296;2022-07-03T00:35:42;13.18;;;2.88;;
63874;SDS011;51595;24.180;-110.296;2022-07-03T00:38:12;8.98;;;2.70;;
63874;SDS011;51595;24.180;-110.296;2022-07-03T00:40:39;8.68;;;2.67;;
63874;SDS011;51595;24.180;-110.296;2022-07-03T00:43:05;7.90;;;2.80;;
63874;SDS011;51595;24.180;-110.296;2022-07-03T00:45:34;7.07;;;2.75;;
63874;SDS011;51595;24.180;-110.296;2022-07-03T00:48:01;11.35;;;2.47;;
63874;SDS011;51595;24.180;-110.296;2022-07-03T00:50:35;9.90;;;2.85;;
63874;SDS011;51595;24.180;-110.296;2022-07-03T00:53:02;6.63;;;2.45;;
63874;SDS011;51595;24.180;-110.296;2022-07-03T00:55:29;14.85;;;3.13;;
63874;SDS011;51595;24.180;-110.296;2022-07-03T00:57:56;11.13;;;2.90;;
63874;SDS011;51595;24.180;-110.296;2022-07-03T01:00:23;8.20;;;2.60;;
63874;SDS011;51595;24.180;-110.296;2022-07-03T01:02:56;9.80;;;3.05;;
63874;SDS011;51595;24.180;-110.296;2022-07-03T01:05:39;9.18;;;3.17;;
63874;SDS011;51595;24.180;-110.296;2022-07-03T01:08:19;12.07;;;3.03;;
63874;SDS011;51595;24.180;-110.296;2022-07-03T01:16:54;9.45;;;2.78;;
63874;SDS011;51595;24.180;-110.296;2022-07-03T01:19:46;10.35;;;2.70;;
63874;SDS011;51595;24.180;-110.296;2022-07-03T01:22:34;9.48;;;3.03;;
63874;SDS011;51595;24.180;-110.296;2022-07-03T01:33:10;8.27;;;3.00;;
63874;SDS011;51595;24.180;-110.296;2022-07-03T01:35:41;9.32;;;2.83;;
63874;SDS011;51595;24.180;-110.296;2022-07-03T01:38:30;9.18;;;2.55;;
63874;SDS011;51595;24.180;-110.296;2022-07-03T01:40:58;10.70;;;2.80;;
63874;SDS011;51595;24.180;-110.296;2022-07-03T01:43:30;9.68;;;2.53;;
63874;SDS011;51595;24.180;-110.296;2022-07-03T01:45:59;11.80;;;3.58;;
63874;SDS011;51595;24.180;-110.296;2022-07-03T01:48:27;10.43;;;3.10;;
63874;SDS011;51595;24.180;-110.296;2022-07-03T01:50:55;10.88;;;3.30;;
63874;SDS011;51595;24.180;-110.296;2022-07-03T01:53:26;9.40;;;3.10;;
63874;SDS011;51595;24.180;-110.296;2022-07-03T01:55:58;9.13;;;3.17;;
63874;SDS011;51595;24.180;-110.296;2022-07-03T01:58:26;12.45;;;3.13;;
63874;SDS011;51595;24.180;-110.296;2022-07-03T02:03:50;11.50;;;3.47;;
63874;SDS011;51595;24.180;-110.296;2022-07-03T02:06:37;12.38;;;3.65;;
63874;SDS011;51595;24.180;-110.296;2022-07-03T02:09:09;11.50;;;3.03;;
63874;SDS011;51595;24.180;-110.296;2022-07-03T02:11:42;14.68;;;4.00;;
63874;SDS011;51595;24.180;-110.296;2022-07-03T02:14:17;17.52;;;4.25;;
63874;SDS011;51595;24.180;-110.296;2022-07-03T02:19:59;21.67;;;5.00;;
63874;SDS011;51595;24.180;-110.296;2022-07-03T02:22:33;18.85;;;4.15;;
63874;SDS011;51595;24.180;-110.296;2022-07-03T02:25:13;17.65;;;4.20;;
63874;SDS011;51595;24.180;-110.296;2022-07-03T02:27:51;19.88;;;4.25;;
63874;SDS011;51595;24.180;-110.296;2022-07-03T02:30:24;19.73;;;4.28;;
63874;SDS011;51595;24.180;-110.296;2022-07-03T02:32:54;21.95;;;4.45;;
63874;SDS011;51595;24.180;-110.296;2022-07-03T02:35:28;22.00;;;5.10;;
63874;SDS011;51595;24.180;-110.296;2022-07-03T02:37:59;32.55;;;5.25;;
63874;SDS011;51595;24.180;-110.296;2022-07-03T02:40:42;17.70;;;4.72;;
63874;SDS011;51595;24.180;-110.296;2022-07-03T02:43:34;19.63;;;4.93;;
63874;SDS011;51595;24.180;-110.296;2022-07-03T02:49:14;22.38;;;4.80;;
63874;SDS011;51595;24.180;-110.296;2022-07-03T02:51:50;28.23;;;5.45;;
63874;SDS011;51595;24.180;-110.296;2022-07-03T02:54:36;23.70;;;4.80;;
63874;SDS011;51595;24.180;-110.296;2022-07-03T02:57:10;26.95;;;5.72;;
63874;SDS011;51595;24.180;-110.296;2022-07-03T03:02:25;19.17;;;5.00;;
63874;SDS011;51595;24.180;-110.296;2022-07-03T03:05:22;21.83;;;4.88;;
63874;SDS011;51595;24.180;-110.296;2022-07-03T03:07:55;20.95;;;5.07;;
63874;SDS011;51595;24.180;-110.296;2022-07-03T03:10:42;21.15;;;4.65;;
63874;SDS011;51595;24.180;-110.296;2022-07-03T03:13:11;25.27;;;4.95;;
63874;SDS011;51595;24.180;-110.296;2022-07-03T03:15:43;25.83;;;4.65;;
63874;SDS011;51595;24.180;-110.296;2022-07-03T03:18:31;26.00;;;5.35;;
63874;SDS011;51595;24.180;-110.296;2022-07-03T03:21:05;29.35;;;6.30;;
63874;SDS011;51595;24.180;-110.296;2022-07-03T03:26:11;19.98;;;4.95;;
63874;SDS011;51595;24.180;-110.296;2022-07-03T03:28:40;28.70;;;5.60;;
63874;SDS011;51595;24.180;-110.296;2022-07-03T03:31:07;22.67;;;4.50;;
63874;SDS011;51595;24.180;-110.296;2022-07-03T03:33:56;29.35;;;5.57;;
63874;SDS011;51595;24.180;-110.296;2022-07-03T03:36:21;28.60;;;5.07;;
63874;SDS011;51595;24.180;-110.296;2022-07-03T03:38:48;25.35;;;5.22;;
63874;SDS011;51595;24.180;-110.296;2022-07-03T03:41:15;24.70;;;5.45;;
63874;SDS011;51595;24.180;-110.296;2022-07-03T03:43:41;27.13;;;5.22;;
63874;SDS011;51595;24.180;-110.296;2022-07-03T03:46:08;25.35;;;5.63;;
63874;SDS011;51595;24.180;-110.296;2022-07-03T03:48:34;29.48;;;5.95;;
63874;SDS011;51595;24.180;-110.296;2022-07-03T03:51:01;28.92;;;5.75;;
63874;SDS011;51595;24.180;-110.296;2022-07-03T03:53:29;28.48;;;5.75;;
63874;SDS011;51595;24.180;-110.296;2022-07-03T03:56:06;30.23;;;6.18;;
63874;SDS011;51595;24.180;-110.296;2022-07-03T03:58:36;26.65;;;6.10;;
63874;SDS011;51595;24.180;-110.296;2022-07-03T04:01:04;25.63;;;7.10;;
63874;SDS011;51595;24.180;-110.296;2022-07-03T04:03:33;24.73;;;5.45;;
63874;SDS011;51595;24.180;-110.296;2022-07-03T04:06:00;24.10;;;5.43;;
63874;SDS011;51595;24.180;-110.296;2022-07-03T04:08:28;31.73;;;6.55;;
63874;SDS011;51595;24.180;-110.296;2022-07-03T04:10:55;27.42;;;5.25;;
63874;SDS011;51595;24.180;-110.296;2022-07-03T04:13:21;31.98;;;6.35;;
63874;SDS011;51595;24.180;-110.296;2022-07-03T04:15:49;31.40;;;6.43;;
63874;SDS011;51595;24.180;-110.296;2022-07-03T04:18:16;24.23;;;5.68;;
63874;SDS011;51595;24.180;-110.296;2022-07-03T04:20:43;25.00;;;5.05;;
63874;SDS011;51595;24.180;-110.296;2022-07-03T04:23:10;24.50;;;5.93;;
63874;SDS011;51595;24.180;-110.296;2022-07-03T04:25:36;27.67;;;7.07;;
63874;SDS011;51595;24.180;-110.296;2022-07-03T04:28:03;32.35;;;6.18;;
63874;SDS011;51595;24.180;-110.296;2022-07-03T04:30:29;28.88;;;5.95;;
63874;SDS011;51595;24.180;-110.296;2022-07-03T04:32:56;33.13;;;5.53;;
63874;SDS011;51595;24.180;-110.296;2022-07-03T04:35:24;29.45;;;6.05;;
63874;SDS011;51595;24.180;-110.296;2022-07-03T04:37:50;32.00;;;6.43;;
63874;SDS011;51595;24.180;-110.296;2022-07-03T04:40:17;24.98;;;6.35;;
63874;SDS011;51595;24.180;-110.296;2022-07-03T04:42:43;30.88;;;6.35;;
63874;SDS011;51595;24.180;-110.296;2022-07-03T04:45:10;28.20;;;6.30;;
63874;SDS011;51595;24.180;-110.296;2022-07-03T04:47:36;37.63;;;6.25;;
63874;SDS011;51595;24.180;-110.296;2022-07-03T04:50:03;36.33;;;6.78;;
63874;SDS011;51595;24.180;-110.296;2022-07-03T04:52:30;28.67;;;6.20;;
63874;SDS011;51595;24.180;-110.296;2022-07-03T04:54:56;37.97;;;6.00;;
63874;SDS011;51595;24.180;-110.296;2022-07-03T04:57:22;25.70;;;6.20;;
63874;SDS011;51595;24.180;-110.296;2022-07-03T04:59:49;23.27;;;5.60;;
63874;SDS011;51595;24.180;-110.296;2022-07-03T05:02:15;29.08;;;5.53;;
63874;SDS011;51595;24.180;-110.296;2022-07-03T05:04:42;30.67;;;6.85;;
63874;SDS011;51595;24.180;-110.296;2022-07-03T05:07:08;36.30;;;7.13;;
63874;SDS011;51595;24.180;-110.296;2022-07-03T05:09:35;26.55;;;6.55;;
63874;SDS011;51595;24.180;-110.296;2022-07-03T05:12:01;21.55;;;5.18;;
63874;SDS011;51595;24.180;-110.296;2022-07-03T05:14:28;26.58;;;5.55;;
63874;SDS011;51595;24.180;-110.296;2022-07-03T05:16:54;25.30;;;5.60;;
63874;SDS011;51595;24.180;-110.296;2022-07-03T05:19:21;32.55;;;6.05;;
63874;SDS011;51595;24.180;-110.296;2022-07-03T05:21:47;28.33;;;6.47;;
63874;SDS011;51595;24.180;-110.296;2022-07-03T05:24:14;25.10;;;5.03;;
63874;SDS011;51595;24.180;-110.296;2022-07-03T05:26:40;22.92;;;5.63;;
63874;SDS011;51595;24.180;-110.296;2022-07-03T05:29:07;28.20;;;5.75;;
63874;SDS011;51595;24.180;-110.296;2022-07-03T05:31:33;26.30;;;5.55;;
63874;SDS011;51595;24.180;-110.296;2022-07-03T05:33:59;25.10;;;5.10;;
63874;SDS011;51595;24.180;-110.296;2022-07-03T05:36:26;31.25;;;6.00;;
63874;SDS011;51595;24.180;-110.296;2022-07-03T05:38:52;36.83;;;7.63;;
63874;SDS011;51595;24.180;-110.296;2022-07-03T05:41:37;28.35;;;5.78;;
63874;SDS011;51595;24.180;-110.296;2022-07-03T05:44:03;28.15;;;5.82;;
63874;SDS011;51595;24.180;-110.296;2022-07-03T05:46:30;27.55;;;5.30;;
63874;SDS011;51595;24.180;-110.296;2022-07-03T05:48:56;29.73;;;5.97;;
63874;SDS011;51595;24.180;-110.296;2022-07-03T05:51:23;28.70;;;5.78;;
63874;SDS011;51595;24.180;-110.296;2022-07-03T05:53:49;28.35;;;5.57;;
63874;SDS011;51595;24.180;-110.296;2022-07-03T05:56:16;30.33;;;5.63;;
63874;SDS011;51595;24.180;-110.296;2022-07-03T05:58:42;22.13;;;5.30;;
63874;SDS011;51595;24.180;-110.296;2022-07-03T06:01:08;26.67;;;5.90;;
63874;SDS011;51595;24.180;-110.296;2022-07-03T06:03:35;24.98;;;5.07;;
63874;SDS011;51595;24.180;-110.296;2022-07-03T06:06:01;35.50;;;5.35;;
63874;SDS011;51595;24.180;-110.296;2022-07-03T06:08:28;25.92;;;5.95;;
63874;SDS011;51595;24.180;-110.296;2022-07-03T06:10:54;26.90;;;5.35;;
63874;SDS011;51595;24.180;-110.296;2022-07-03T06:13:21;22.98;;;5.72;;
63874;SDS011;51595;24.180;-110.296;2022-07-03T06:15:47;28.15;;;6.28;;
63874;SDS011;51595;24.180;-110.296;2022-07-03T06:18:14;20.95;;;5.00;;
63874;SDS011;51595;24.180;-110.296;2022-07-03T06:20:40;25.40;;;6.75;;
63874;SDS011;51595;24.180;-110.296;2022-07-03T06:23:07;28.08;;;6.05;;
63874;SDS011;51595;24.180;-110.296;2022-07-03T06:25:33;23.27;;;5.40;;
63874;SDS011;51595;24.180;-110.296;2022-07-03T06:28:00;27.48;;;5.85;;
63874;SDS011;51595;24.180;-110.296;2022-07-03T06:30:26;20.85;;;5.68;;
63874;SDS011;51595;24.180;-110.296;2022-07-03T06:32:53;22.23;;;4.75;;
63874;SDS011;51595;24.180;-110.296;2022-07-03T06:35:19;27.67;;;5.28;;
63874;SDS011;51595;24.180;-110.296;2022-07-03T06:37:46;26.33;;;5.35;;
63874;SDS011;51595;24.180;-110.296;2022-07-03T06:40:12;20.73;;;5.13;;
63874;SDS011;51595;24.180;-110.296;2022-07-03T06:42:39;28.35;;;5.47;;
63874;SDS011;51595;24.180;-110.296;2022-07-03T06:45:05;19.77;;;4.97;;
63874;SDS011;51595;24.180;-110.296;2022-07-03T06:47:36;22.40;;;4.85;;
63874;SDS011;51595;24.180;-110.296;2022-07-03T06:50:04;23.45;;;4.70;;
63874;SDS011;51595;24.180;-110.296;2022-07-03T06:52:31;26.67;;;6.25;;
63874;SDS011;51595;24.180;-110.296;2022-07-03T06:54:58;15.95;;;4.75;;
63874;SDS011;51595;24.180;-110.296;2022-07-03T06:57:24;23.27;;;5.80;;
63874;SDS011;51595;24.180;-110.296;2022-07-03T06:59:51;21.92;;;5.20;;
63874;SDS011;51595;24.180;-110.296;2022-07-03T07:02:17;25.73;;;5.05;;
63874;SDS011;51595;24.180;-110.296;2022-07-03T07:04:44;26.33;;;5.95;;
63874;SDS011;51595;24.180;-110.296;2022-07-03T07:07:10;23.10;;;5.35;;
63874;SDS011;51595;24.180;-110.296;2022-07-03T07:09:36;26.00;;;5.45;;
63874;SDS011;51595;24.180;-110.296;2022-07-03T07:12:03;26.42;;;5.60;;
63874;SDS011;51595;24.180;-110.296;2022-07-03T07:14:30;27.77;;;5.38;;
63874;SDS011;51595;24.180;-110.296;2022-07-03T07:16:57;30.25;;;5.47;;
63874;SDS011;51595;24.180;-110.296;2022-07-03T07:19:23;21.88;;;5.47;;
63874;SDS011;51595;24.180;-110.296;2022-07-03T07:21:50;21.33;;;5.07;;
63874;SDS011;51595;24.180;-110.296;2022-07-03T07:24:16;22.83;;;4.78;;
63874;SDS011;51595;24.180;-110.296;2022-07-03T07:26:42;18.95;;;5.00;;
63874;SDS011;51595;24.180;-110.296;2022-07-03T07:29:09;22.80;;;5.28;;
63874;SDS011;51595;24.180;-110.296;2022-07-03T07:31:35;22.88;;;5.05;;
63874;SDS011;51595;24.180;-110.296;2022-07-03T07:34:02;26.63;;;5.47;;
63874;SDS011;51595;24.180;-110.296;2022-07-03T07:36:30;28.00;;;5.47;;
63874;SDS011;51595;24.180;-110.296;2022-07-03T07:38:57;25.60;;;5.15;;
63874;SDS011;51595;24.180;-110.296;2022-07-03T07:41:23;23.80;;;4.65;;
63874;SDS011;51595;24.180;-110.296;2022-07-03T07:43:50;22.95;;;5.20;;
63874;SDS011;51595;24.180;-110.296;2022-07-03T07:46:16;20.98;;;4.68;;
63874;SDS011;51595;24.180;-110.296;2022-07-03T07:48:43;21.70;;;5.10;;
63874;SDS011;51595;24.180;-110.296;2022-07-03T07:51:10;31.48;;;5.65;;
63874;SDS011;51595;24.180;-110.296;2022-07-03T07:53:37;28.58;;;5.50;;
63874;SDS011;51595;24.180;-110.296;2022-07-03T07:56:03;20.63;;;5.00;;
63874;SDS011;51595;24.180;-110.296;2022-07-03T07:58:30;22.95;;;4.93;;
63874;SDS011;51595;24.180;-110.296;2022-07-03T08:00:56;25.98;;;5.35;;
63874;SDS011;51595;24.180;-110.296;2022-07-03T08:03:41;19.95;;;5.32;;
63874;SDS011;51595;24.180;-110.296;2022-07-03T08:06:25;22.98;;;5.80;;
63874;SDS011;51595;24.180;-110.296;2022-07-03T08:08:52;28.83;;;6.13;;
63874;SDS011;51595;24.180;-110.296;2022-07-03T08:11:18;21.48;;;4.82;;
63874;SDS011;51595;24.180;-110.296;2022-07-03T08:13:45;23.70;;;5.13;;
63874;SDS011;51595;24.180;-110.296;2022-07-03T08:16:12;26.73;;;5.40;;
63874;SDS011;51595;24.180;-110.296;2022-07-03T08:18:39;24.20;;;5.43;;
63874;SDS011;51595;24.180;-110.296;2022-07-03T08:21:06;21.80;;;4.55;;
63874;SDS011;51595;24.180;-110.296;2022-07-03T08:23:32;24.73;;;4.80;;
63874;SDS011;51595;24.180;-110.296;2022-07-03T08:25:58;19.40;;;4.72;;
63874;SDS011;51595;24.180;-110.296;2022-07-03T08:28:26;27.15;;;5.10;;
63874;SDS011;51595;24.180;-110.296;2022-07-03T08:30:53;21.83;;;4.60;;
63874;SDS011;51595;24.180;-110.296;2022-07-03T08:33:19;23.77;;;5.55;;
63874;SDS011;51595;24.180;-110.296;2022-07-03T08:35:45;20.67;;;5.00;;
63874;SDS011;51595;24.180;-110.296;2022-07-03T08:38:12;24.35;;;5.32;;
63874;SDS011;51595;24.180;-110.296;2022-07-03T08:40:39;23.98;;;4.95;;
63874;SDS011;51595;24.180;-110.296;2022-07-03T08:43:07;23.45;;;4.93;;
63874;SDS011;51595;24.180;-110.296;2022-07-03T08:45:33;24.05;;;4.85;;
63874;SDS011;51595;24.180;-110.296;2022-07-03T08:48:04;24.13;;;5.25;;
63874;SDS011;51595;24.180;-110.296;2022-07-03T08:50:33;20.92;;;4.57;;
63874;SDS011;51595;24.180;-110.296;2022-07-03T08:53:00;25.17;;;5.65;;
63874;SDS011;51595;24.180;-110.296;2022-07-03T08:55:28;25.55;;;5.20;;
63874;SDS011;51595;24.180;-110.296;2022-07-03T08:57:55;24.23;;;4.72;;
63874;SDS011;51595;24.180;-110.296;2022-07-03T09:00:24;25.67;;;5.65;;
63874;SDS011;51595;24.180;-110.296;2022-07-03T09:02:52;19.85;;;5.18;;
63874;SDS011;51595;24.180;-110.296;2022-07-03T09:05:20;25.17;;;5.25;;
63874;SDS011;51595;24.180;-110.296;2022-07-03T09:07:46;22.73;;;5.43;;
63874;SDS011;51595;24.180;-110.296;2022-07-03T09:10:14;25.88;;;5.72;;
63874;SDS011;51595;24.180;-110.296;2022-07-03T09:12:42;22.92;;;5.60;;
63874;SDS011;51595;24.180;-110.296;2022-07-03T09:15:11;25.83;;;5.80;;
63874;SDS011;51595;24.180;-110.296;2022-07-03T09:17:38;26.67;;;5.22;;
63874;SDS011;51595;24.180;-110.296;2022-07-03T09:20:05;27.50;;;6.30;;
63874;SDS011;51595;24.180;-110.296;2022-07-03T09:22:34;29.85;;;5.85;;
63874;SDS011;51595;24.180;-110.296;2022-07-03T09:25:09;28.02;;;6.10;;
63874;SDS011;51595;24.180;-110.296;2022-07-03T09:27:37;26.08;;;5.80;;
63874;SDS011;51595;24.180;-110.296;2022-07-03T09:30:13;32.30;;;5.97;;
63874;SDS011;51595;24.180;-110.296;2022-07-03T09:32:41;21.55;;;5.18;;
63874;SDS011;51595;24.180;-110.296;2022-07-03T09:35:11;28.40;;;6.63;;
63874;SDS011;51595;24.180;-110.296;2022-07-03T09:37:40;30.83;;;6.30;;
63874;SDS011;51595;24.180;-110.296;2022-07-03T09:40:12;29.23;;;5.88;;
63874;SDS011;51595;24.180;-110.296;2022-07-03T09:42:39;26.25;;;5.88;;
63874;SDS011;51595;24.180;-110.296;2022-07-03T09:45:05;27.55;;;6.50;;
63874;SDS011;51595;24.180;-110.296;2022-07-03T09:47:32;27.88;;;5.75;;
63874;SDS011;51595;24.180;-110.296;2022-07-03T09:50:03;23.45;;;4.90;;
63874;SDS011;51595;24.180;-110.296;2022-07-03T09:57:38;29.20;;;6.32;;
63874;SDS011;51595;24.180;-110.296;2022-07-03T10:07:58;29.17;;;6.25;;
63874;SDS011;51595;24.180;-110.296;2022-07-03T10:10:27;23.98;;;5.65;;
63874;SDS011;51595;24.180;-110.296;2022-07-03T10:12:55;20.88;;;5.28;;
63874;SDS011;51595;24.180;-110.296;2022-07-03T10:15:23;25.95;;;6.28;;
63874;SDS011;51595;24.180;-110.296;2022-07-03T10:17:54;27.58;;;6.75;;
63874;SDS011;51595;24.180;-110.296;2022-07-03T10:20:33;28.63;;;6.43;;
63874;SDS011;51595;24.180;-110.296;2022-07-03T10:23:02;31.25;;;6.35;;
63874;SDS011;51595;24.180;-110.296;2022-07-03T10:25:29;31.98;;;6.93;;
63874;SDS011;51595;24.180;-110.296;2022-07-03T10:27:56;26.83;;;6.15;;
63874;SDS011;51595;24.180;-110.296;2022-07-03T10:30:24;28.38;;;6.30;;
63874;SDS011;51595;24.180;-110.296;2022-07-03T10:32:51;28.67;;;6.63;;
63874;SDS011;51595;24.180;-110.296;2022-07-03T10:35:27;40.15;;;7.40;;
63874;SDS011;51595;24.180;-110.296;2022-07-03T10:43:28;33.08;;;7.38;;
63874;SDS011;51595;24.180;-110.296;2022-07-03T10:46:15;31.92;;;8.13;;
63874;SDS011;51595;24.180;-110.296;2022-07-03T10:48:56;31.23;;;6.95;;
63874;SDS011;51595;24.180;-110.296;2022-07-03T10:51:23;29.95;;;7.00;;
63874;SDS011;51595;24.180;-110.296;2022-07-03T10:54:10;32.95;;;7.63;;
63874;SDS011;51595;24.180;-110.296;2022-07-03T11:05:07;27.88;;;6.22;;
63874;SDS011;51595;24.180;-110.296;2022-07-03T11:23:41;31.52;;;7.38;;
63874;SDS011;51595;24.180;-110.296;2022-07-03T11:26:29;31.20;;;7.30;;
63874;SDS011;51595;24.180;-110.296;2022-07-03T11:28:55;36.47;;;7.78;;
63874;SDS011;51595;24.180;-110.296;2022-07-03T11:31:22;34.40;;;7.55;;
63874;SDS011;51595;24.180;-110.296;2022-07-03T11:36:28;38.47;;;8.18;;
63874;SDS011;51595;24.180;-110.296;2022-07-03T11:41:26;39.55;;;7.25;;
63874;SDS011;51595;24.180;-110.296;2022-07-03T11:43:55;33.88;;;7.35;;
63874;SDS011;51595;24.180;-110.296;2022-07-03T11:46:28;36.30;;;7.22;;
63874;SDS011;51595;24.180;-110.296;2022-07-03T11:49:11;32.50;;;7.50;;
63874;SDS011;51595;24.180;-110.296;2022-07-03T11:51:40;35.90;;;7.57;;
63874;SDS011;51595;24.180;-110.296;2022-07-03T11:54:08;31.98;;;6.95;;
63874;SDS011;51595;24.180;-110.296;2022-07-03T11:56:35;33.72;;;7.43;;
63874;SDS011;51595;24.180;-110.296;2022-07-03T11:59:04;36.75;;;7.75;;
63874;SDS011;51595;24.180;-110.296;2022-07-03T12:01:36;32.47;;;7.18;;
63874;SDS011;51595;24.180;-110.296;2022-07-03T12:06:52;29.33;;;7.30;;
63874;SDS011;51595;24.180;-110.296;2022-07-03T12:09:33;31.70;;;7.78;;
63874;SDS011;51595;24.180;-110.296;2022-07-03T12:17:01;41.40;;;8.25;;
63874;SDS011;51595;24.180;-110.296;2022-07-03T12:19:28;32.30;;;7.55;;
63874;SDS011;51595;24.180;-110.296;2022-07-03T12:21:54;34.40;;;7.95;;
63874;SDS011;51595;24.180;-110.296;2022-07-03T12:24:21;37.38;;;8.40;;
63874;SDS011;51595;24.180;-110.296;2022-07-03T12:26:48;35.92;;;7.95;;
63874;SDS011;51595;24.180;-110.296;2022-07-03T12:29:15;33.42;;;7.32;;
63874;SDS011;51595;24.180;-110.296;2022-07-03T12:31:43;33.80;;;7.10;;
63874;SDS011;51595;24.180;-110.296;2022-07-03T12:34:15;38.97;;;8.50;;
63874;SDS011;51595;24.180;-110.296;2022-07-03T12:36:55;38.25;;;7.53;;
63874;SDS011;51595;24.180;-110.296;2022-07-03T12:39:23;40.05;;;8.13;;
63874;SDS011;51595;24.180;-110.296;2022-07-03T12:42:27;40.88;;;8.80;;
63874;SDS011;51595;24.180;-110.296;2022-07-03T12:44:59;38.00;;;8.63;;
63874;SDS011;51595;24.180;-110.296;2022-07-03T12:47:28;36.55;;;9.18;;
63874;SDS011;51595;24.180;-110.296;2022-07-03T12:49:56;37.88;;;8.82;;
63874;SDS011;51595;24.180;-110.296;2022-07-03T12:52:24;40.75;;;8.30;;
63874;SDS011;51595;24.180;-110.296;2022-07-03T12:54:50;33.13;;;8.70;;
63874;SDS011;51595;24.180;-110.296;2022-07-03T12:57:17;38.88;;;8.23;;
63874;SDS011;51595;24.180;-110.296;2022-07-03T13:00:06;38.88;;;9.73;;
63874;SDS011;51595;24.180;-110.296;2022-07-03T13:02:40;42.13;;;9.02;;
63874;SDS011;51595;24.180;-110.296;2022-07-03T13:05:14;37.72;;;9.05;;
63874;SDS011;51595;24.180;-110.296;2022-07-03T13:07:52;37.85;;;8.40;;
63874;SDS011;51595;24.180;-110.296;2022-07-03T13:10:20;41.67;;;9.00;;
63874;SDS011;51595;24.180;-110.296;2022-07-03T13:12:57;31.65;;;8.75;;
63874;SDS011;51595;24.180;-110.296;2022-07-03T13:15:25;36.20;;;8.40;;
63874;SDS011;51595;24.180;-110.296;2022-07-03T13:20:23;37.00;;;8.70;;
63874;SDS011;51595;24.180;-110.296;2022-07-03T13:22:56;54.17;;;9.13;;
63874;SDS011;51595;24.180;-110.296;2022-07-03T13:25:28;38.03;;;8.40;;
63874;SDS011;51595;24.180;-110.296;2022-07-03T13:28:11;37.38;;;9.00;;
63874;SDS011;51595;24.180;-110.296;2022-07-03T13:30:42;29.67;;;8.32;;
63874;SDS011;51595;24.180;-110.296;2022-07-03T13:33:08;35.03;;;7.97;;
63874;SDS011;51595;24.180;-110.296;2022-07-03T13:35:35;33.53;;;7.88;;
63874;SDS011;51595;24.180;-110.296;2022-07-03T13:38:02;34.65;;;8.43;;
63874;SDS011;51595;24.180;-110.296;2022-07-03T13:40:29;29.90;;;7.43;;
63874;SDS011;51595;24.180;-110.296;2022-07-03T13:42:56;33.10;;;7.18;;
63874;SDS011;51595;24.180;-110.296;2022-07-03T13:45:22;36.25;;;7.55;;
63874;SDS011;51595;24.180;-110.296;2022-07-03T13:47:49;33.42;;;7.10;;
63874;SDS011;51595;24.180;-110.296;2022-07-03T13:50:15;27.05;;;6.75;;
63874;SDS011;51595;24.180;-110.296;2022-07-03T13:52:42;35.92;;;8.07;;
63874;SDS011;51595;24.180;-110.296;2022-07-03T13:55:08;36.13;;;7.43;;
63874;SDS011;51595;24.180;-110.296;2022-07-03T13:57:35;32.05;;;7.03;;
63874;SDS011;51595;24.180;-110.296;2022-07-03T14:00:01;31.77;;;7.13;;
63874;SDS011;51595;24.180;-110.296;2022-07-03T14:02:28;29.45;;;6.47;;
63874;SDS011;51595;24.180;-110.296;2022-07-03T14:04:54;30.27;;;7.88;;
63874;SDS011;51595;24.180;-110.296;2022-07-03T14:07:22;29.23;;;6.78;;
63874;SDS011;51595;24.180;-110.296;2022-07-03T14:09:48;28.52;;;6.85;;
63874;SDS011;51595;24.180;-110.296;2022-07-03T14:12:15;31.00;;;6.80;;
63874;SDS011;51595;24.180;-110.296;2022-07-03T14:14:41;32.83;;;7.22;;
63874;SDS011;51595;24.180;-110.296;2022-07-03T14:17:07;26.30;;;6.18;;
63874;SDS011;51595;24.180;-110.296;2022-07-03T14:19:34;27.58;;;7.07;;
63874;SDS011;51595;24.180;-110.296;2022-07-03T14:22:00;27.10;;;6.32;;
63874;SDS011;51595;24.180;-110.296;2022-07-03T14:24:27;26.23;;;5.40;;
63874;SDS011;51595;24.180;-110.296;2022-07-03T14:26:53;26.70;;;6.60;;
63874;SDS011;51595;24.180;-110.296;2022-07-03T14:29:38;28.02;;;6.85;;
63874;SDS011;51595;24.180;-110.296;2022-07-03T14:32:23;24.57;;;5.33;;
63874;SDS011;51595;24.180;-110.296;2022-07-03T14:34:57;30.80;;;7.10;;
63874;SDS011;51595;24.180;-110.296;2022-07-03T14:37:24;24.80;;;6.15;;
63874;SDS011;51595;24.180;-110.296;2022-07-03T14:39:51;27.92;;;6.72;;
63874;SDS011;51595;24.180;-110.296;2022-07-03T14:42:18;21.83;;;6.45;;
63874;SDS011;51595;24.180;-110.296;2022-07-03T14:44:45;30.27;;;6.32;;
63874;SDS011;51595;24.180;-110.296;2022-07-03T14:47:12;29.45;;;6.97;;
63874;SDS011;51595;24.180;-110.296;2022-07-03T14:49:38;27.73;;;5.70;;
63874;SDS011;51595;24.180;-110.296;2022-07-03T14:52:05;23.88;;;6.07;;
63874;SDS011;51595;24.180;-110.296;2022-07-03T14:54:32;26.33;;;5.40;;
63874;SDS011;51595;24.180;-110.296;2022-07-03T14:57:06;27.55;;;6.20;;
63874;SDS011;51595;24.180;-110.296;2022-07-03T15:02:22;21.40;;;5.40;;
63874;SDS011;51595;24.180;-110.296;2022-07-03T15:07:37;24.45;;;5.95;;
63874;SDS011;51595;24.180;-110.296;2022-07-03T15:10:33;26.58;;;5.72;;
63874;SDS011;51595;24.180;-110.296;2022-07-03T15:13:03;33.03;;;5.93;;
63874;SDS011;51595;24.180;-110.296;2022-07-03T15:15:31;24.33;;;5.78;;
63874;SDS011;51595;24.180;-110.296;2022-07-03T15:17:59;21.83;;;5.20;;
63874;SDS011;51595;24.180;-110.296;2022-07-03T15:20:36;24.60;;;4.72;;
63874;SDS011;51595;24.180;-110.296;2022-07-03T15:23:03;23.05;;;4.80;;
63874;SDS011;51595;24.180;-110.296;2022-07-03T15:25:32;23.98;;;5.50;;
63874;SDS011;51595;24.180;-110.296;2022-07-03T15:28:01;24.45;;;5.80;;
63874;SDS011;51595;24.180;-110.296;2022-07-03T15:30:27;19.33;;;4.97;;
63874;SDS011;51595;24.180;-110.296;2022-07-03T15:32:55;24.33;;;5.55;;
63874;SDS011;51595;24.180;-110.296;2022-07-03T15:35:24;22.05;;;5.00;;
63874;SDS011;51595;24.180;-110.296;2022-07-03T15:38:10;19.50;;;5.40;;
63874;SDS011;51595;24.180;-110.296;2022-07-03T15:40:52;29.10;;;5.35;;
63874;SDS011;51595;24.180;-110.296;2022-07-03T15:48:52;25.08;;;6.82;;